Hanover, MI (49241)

10:32 PM EST on March 02, 2015 (GMT -0500)
Jerome Weather | Change Station
CLOSE
Current Station
Personal Weather Station
Location: Jerome, MI
Elevation: 1121 ft
Nearby Weather Stations
Active Advisory: Winter Weather Advisory

Elev 1121 ft 42.02 °N, 84.46 °W | Updated 2 seconds ago

Partly Cloudy
Partly Cloudy
22.3 °F
Feels Like 22 °F
N
0.0
Wind Variable Wind from South
Gusts 4.0 mph

Today
High -- | Low -- °F
--% Chance of Precip.
Yesterday
High -- | Low -- °F
Precip. -- in
7:12 AM 6:29 PM
Waxing Gibbous, 94% visible
Pressure 30.32 in
Visibility 10.0 miles
Clouds Scattered Clouds 12000 ft
Windchill 22 °F
Dew Point 16 °F
Humidity 78%
Rainfall 0.00 in
Snow Depth Not available.
UV 0 out of 12
Pollen .40 out of 12
Air Quality Not available.
Flu Activity Not available.
METAR KJYM 030315Z AUTO 19004KT 10SM SCT120 M06/M11 A3032 RMK AO2 T10571109

More Conditions Fewer Conditions

Pressure 30.32 in
Visibility 10.0 miles
Clouds Scattered Clouds 12000 ft
Windchill 22 °F
Dew Point 16 °F
Humidity 78%
Rainfall 0.00 in
Snow Depth Not available.
UV 0 out of 12
Pollen .40 out of 12
Air Quality Not available.
Flu Activity Not available.
METAR KJYM 030315Z AUTO 19004KT 10SM SCT120 M06/M11 A3032 RMK AO2 T10571109

More Conditions Fewer Conditions

10-Day Weather Forecast

Almanac

Astronomy

Mar. 02, 2015 Rise Set
Actual Time
Civil Twilight
Nautical Twilight
Astronomical Twilight
Moon
Length of Visible Light
Length of Day
Tomorrow will be .
, % of the Moon is Illuminated

Today's Extremes

State Highs State Lows

Community

WunderPhotos

Upload Photos

1,802,060 photos uploaded!

WunderBlogs® & News

Nearby

Air Quality

  Air Quality AQ Index Pollutant
Not available.

Snow Depth

Station Depth Elevation

Earthquake Activity

City Distance Mag. Time & Date
Minimum magnitude displayed is 2.5.

Coastal Water Temperatures

Place Temperature

Nearby Weather Stations

Winter Weather Advisory
Statement as of 9:00 PM EST on March 02, 2015

... Winter Weather Advisory remains in effect from 7 am to 8 PM
EST Tuesday...

Hazardous weather...

* 1 to 3 inches of snow is expected.

* Snow will quickly mix with sleet and freezing rain Tuesday
   morning.

* Ice accumulations of one to two tenths of an inch are
   possible.

* Freezing drizzle is possible Tuesday evening.

Impacts...

* slippery travel is expected due to snow and ice.

* Slower travel speeds anticipated as Road conditions should
   deteriorate.

* Isolated power outages are possible as icing on tree branches
   may result in them falling on power lines.

Precautionary/preparedness actions...

* be prepared for the slippery Road conditions by allowing
   extra time to reach your destination.

* The Michigan Department of Transportation reminds motorists
   to adjust speeds based on the conditions... and to take it
   slow in ice and snow.